sensor_id;sensor_type;location;lat;lon;timestamp;pressure;altitude;pressure_sealevel;temperature;humidity
64080;BME280;51042;49.696;10.808;2023-12-20T00:01:13;99061.00;;;4.11;100.00
64080;BME280;51042;49.696;10.808;2023-12-20T00:03:39;99062.94;;;4.14;100.00
64080;BME280;51042;49.696;10.808;2023-12-20T00:06:04;99056.72;;;4.14;100.00
64080;BME280;51042;49.696;10.808;2023-12-20T00:08:29;99056.72;;;4.14;100.00
64080;BME280;51042;49.696;10.808;2023-12-20T00:10:54;99062.16;;;4.14;100.00
64080;BME280;51042;49.696;10.808;2023-12-20T00:13:19;99056.72;;;4.14;100.00
64080;BME280;51042;49.696;10.808;2023-12-20T00:15:44;99054.78;;;4.14;100.00
64080;BME280;51042;49.696;10.808;2023-12-20T00:18:10;99057.50;;;4.14;100.00
64080;BME280;51042;49.696;10.808;2023-12-20T00:20:35;99062.16;;;4.14;100.00
64080;BME280;51042;49.696;10.808;2023-12-20T00:23:00;99059.88;;;4.16;100.00
64080;BME280;51042;49.696;10.808;2023-12-20T00:25:26;99058.28;;;4.15;100.00
64080;BME280;51042;49.696;10.808;2023-12-20T00:27:51;99058.28;;;4.15;100.00
64080;BME280;51042;49.696;10.808;2023-12-20T00:30:16;99063.31;;;4.13;100.00
64080;BME280;51042;49.696;10.808;2023-12-20T00:32:41;99053.59;;;4.11;100.00
64080;BME280;51042;49.696;10.808;2023-12-20T00:35:15;99052.06;;;4.10;100.00
64080;BME280;51042;49.696;10.808;2023-12-20T00:37:40;99054.78;;;4.10;100.00
64080;BME280;51042;49.696;10.808;2023-12-20T00:40:05;99057.50;;;4.10;100.00
64080;BME280;51042;49.696;10.808;2023-12-20T00:42:31;99054.78;;;4.10;100.00
64080;BME280;51042;49.696;10.808;2023-12-20T00:44:56;99060.22;;;4.10;100.00
64080;BME280;51042;49.696;10.808;2023-12-20T00:47:21;99056.72;;;4.10;100.00
64080;BME280;51042;49.696;10.808;2023-12-20T00:49:47;99063.72;;;4.11;100.00
64080;BME280;51042;49.696;10.808;2023-12-20T00:52:12;99071.06;;;4.10;100.00
64080;BME280;51042;49.696;10.808;2023-12-20T00:54:37;99061.38;;;4.09;100.00
64080;BME280;51042;49.696;10.808;2023-12-20T00:57:02;99055.94;;;4.09;100.00
64080;BME280;51042;49.696;10.808;2023-12-20T00:59:27;99054.38;;;4.08;100.00
64080;BME280;51042;49.696;10.808;2023-12-20T01:01:52;99052.44;;;4.09;100.00
64080;BME280;51042;49.696;10.808;2023-12-20T01:04:18;99051.28;;;4.10;100.00
64080;BME280;51042;49.696;10.808;2023-12-20T01:06:43;99051.28;;;4.10;100.00
64080;BME280;51042;49.696;10.808;2023-12-20T01:09:08;99052.06;;;4.10;100.00
64080;BME280;51042;49.696;10.808;2023-12-20T01:11:33;99042.34;;;4.09;100.00
64080;BME280;51042;49.696;10.808;2023-12-20T01:13:58;99046.22;;;4.08;100.00
64080;BME280;51042;49.696;10.808;2023-12-20T01:16:24;99044.66;;;4.07;100.00
64080;BME280;51042;49.696;10.808;2023-12-20T01:18:49;99043.09;;;4.06;100.00
64080;BME280;51042;49.696;10.808;2023-12-20T01:21:14;99043.47;;;4.05;100.00
64080;BME280;51042;49.696;10.808;2023-12-20T01:23:39;99043.47;;;4.05;100.00
64080;BME280;51042;49.696;10.808;2023-12-20T01:26:04;99039.22;;;4.04;100.00
64080;BME280;51042;49.696;10.808;2023-12-20T01:28:30;99037.63;;;4.03;100.00
64080;BME280;51042;49.696;10.808;2023-12-20T01:30:55;99036.44;;;4.00;100.00
64080;BME280;51042;49.696;10.808;2023-12-20T01:33:20;99034.88;;;3.99;100.00
64080;BME280;51042;49.696;10.808;2023-12-20T01:35:46;99029.84;;;3.98;100.00
64080;BME280;51042;49.696;10.808;2023-12-20T01:38:11;99032.56;;;3.98;100.00
64080;BME280;51042;49.696;10.808;2023-12-20T01:40:36;99030.22;;;3.96;100.00
64080;BME280;51042;49.696;10.808;2023-12-20T01:43:07;99033.66;;;3.93;100.00
64080;BME280;51042;49.696;10.808;2023-12-20T01:45:33;99030.94;;;3.93;100.00
64080;BME280;51042;49.696;10.808;2023-12-20T01:47:58;99027.47;;;3.93;100.00
64080;BME280;51042;49.696;10.808;2023-12-20T01:50:23;99024.34;;;3.91;100.00
64080;BME280;51042;49.696;10.808;2023-12-20T01:52:49;99020.06;;;3.90;100.00
64080;BME280;51042;49.696;10.808;2023-12-20T01:55:17;99021.22;;;3.89;100.00
64080;BME280;51042;49.696;10.808;2023-12-20T01:57:42;99025.47;;;3.86;100.00
64080;BME280;51042;49.696;10.808;2023-12-20T02:00:08;99017.69;;;3.85;100.00
64080;BME280;51042;49.696;10.808;2023-12-20T02:02:34;99014.56;;;3.83;100.00
64080;BME280;51042;49.696;10.808;2023-12-20T02:05:00;99030.06;;;3.82;100.00
64080;BME280;51042;49.696;10.808;2023-12-20T02:07:27;99013.00;;;3.82;100.00
64080;BME280;51042;49.696;10.808;2023-12-20T02:09:52;99019.63;;;3.81;100.00
64080;BME280;51042;49.696;10.808;2023-12-20T02:12:17;99023.84;;;3.78;100.00
64080;BME280;51042;49.696;10.808;2023-12-20T02:14:43;99014.91;;;3.78;100.00
64080;BME280;51042;49.696;10.808;2023-12-20T02:17:08;99006.00;;;3.77;100.00
64080;BME280;51042;49.696;10.808;2023-12-20T02:19:33;99011.03;;;3.75;100.00
64080;BME280;51042;49.696;10.808;2023-12-20T02:22:09;99020.31;;;3.74;100.00
64080;BME280;51042;49.696;10.808;2023-12-20T02:24:34;99004.00;;;3.70;100.00
64080;BME280;51042;49.696;10.808;2023-12-20T02:26:59;99000.50;;;3.70;100.00
64080;BME280;51042;49.696;10.808;2023-12-20T02:29:24;98998.97;;;3.69;100.00
64080;BME280;51042;49.696;10.808;2023-12-20T02:31:49;98990.41;;;3.67;100.00
64080;BME280;51042;49.696;10.808;2023-12-20T02:34:15;99003.56;;;3.65;100.00
64080;BME280;51042;49.696;10.808;2023-12-20T02:36:40;98998.50;;;3.63;100.00
64080;BME280;51042;49.696;10.808;2023-12-20T02:39:05;99000.47;;;3.63;100.00
64080;BME280;51042;49.696;10.808;2023-12-20T02:41:30;99011.69;;;3.61;100.00
64080;BME280;51042;49.696;10.808;2023-12-20T02:43:55;99000.41;;;3.59;100.00
64080;BME280;51042;49.696;10.808;2023-12-20T02:46:20;99011.25;;;3.59;100.00
64080;BME280;51042;49.696;10.808;2023-12-20T02:48:46;99005.06;;;3.59;100.00
64080;BME280;51042;49.696;10.808;2023-12-20T02:51:12;99016.69;;;3.59;100.00
64080;BME280;51042;49.696;10.808;2023-12-20T02:53:37;99010.47;;;3.59;100.00
64080;BME280;51042;49.696;10.808;2023-12-20T02:56:02;99010.47;;;3.59;100.00
64080;BME280;51042;49.696;10.808;2023-12-20T02:58:27;99001.56;;;3.58;100.00
64080;BME280;51042;49.696;10.808;2023-12-20T03:00:53;98997.66;;;3.56;100.00
64080;BME280;51042;49.696;10.808;2023-12-20T03:03:18;99011.25;;;3.56;100.00
64080;BME280;51042;49.696;10.808;2023-12-20T03:05:43;99006.59;;;3.56;100.00
64080;BME280;51042;49.696;10.808;2023-12-20T03:08:09;99011.25;;;3.56;100.00
64080;BME280;51042;49.696;10.808;2023-12-20T03:10:36;99011.25;;;3.56;100.00
64080;BME280;51042;49.696;10.808;2023-12-20T03:13:01;99002.31;;;3.55;100.00
64080;BME280;51042;49.696;10.808;2023-12-20T03:15:26;99010.47;;;3.55;100.00
64080;BME280;51042;49.696;10.808;2023-12-20T03:17:51;99013.53;;;3.54;100.00
64080;BME280;51042;49.696;10.808;2023-12-20T03:20:16;99020.91;;;3.53;100.00
64080;BME280;51042;49.696;10.808;2023-12-20T03:22:41;99020.91;;;3.53;100.00
64080;BME280;51042;49.696;10.808;2023-12-20T03:25:07;99026.31;;;3.53;100.00
64080;BME280;51042;49.696;10.808;2023-12-20T03:27:32;99020.50;;;3.51;100.00
64080;BME280;51042;49.696;10.808;2023-12-20T03:29:57;99018.94;;;3.50;100.00
64080;BME280;51042;49.696;10.808;2023-12-20T03:32:22;99016.59;;;3.49;100.00
64080;BME280;51042;49.696;10.808;2023-12-20T03:34:47;99021.22;;;3.48;100.00
64080;BME280;51042;49.696;10.808;2023-12-20T03:37:13;99016.94;;;3.47;100.00
64080;BME280;51042;49.696;10.808;2023-12-20T03:39:38;99025.47;;;3.46;100.00
64080;BME280;51042;49.696;10.808;2023-12-20T03:42:03;99019.28;;;3.45;100.00
64080;BME280;51042;49.696;10.808;2023-12-20T03:44:29;99026.22;;;3.43;100.00
64080;BME280;51042;49.696;10.808;2023-12-20T03:46:54;99009.94;;;3.43;100.00
64080;BME280;51042;49.696;10.808;2023-12-20T03:49:19;99018.06;;;3.43;100.00
64080;BME280;51042;49.696;10.808;2023-12-20T03:51:44;99018.44;;;3.41;100.00
64080;BME280;51042;49.696;10.808;2023-12-20T03:54:09;99018.06;;;3.39;100.00
64080;BME280;51042;49.696;10.808;2023-12-20T03:56:34;99028.91;;;3.39;100.00
64080;BME280;51042;49.696;10.808;2023-12-20T03:59:00;99019.19;;;3.38;100.00
64080;BME280;51042;49.696;10.808;2023-12-20T04:01:25;99020.34;;;3.37;100.00
64080;BME280;51042;49.696;10.808;2023-12-20T04:03:50;99018.34;;;3.34;100.00
64080;BME280;51042;49.696;10.808;2023-12-20T04:06:16;99014.91;;;3.34;100.00
64080;BME280;51042;49.696;10.808;2023-12-20T04:08:41;99014.13;;;3.33;100.00
64080;BME280;51042;49.696;10.808;2023-12-20T04:11:06;99011.75;;;3.32;100.00
64080;BME280;51042;49.696;10.808;2023-12-20T04:13:32;99023.75;;;3.31;100.00
64080;BME280;51042;49.696;10.808;2023-12-20T04:15:57;99018.34;;;3.31;100.00
64080;BME280;51042;49.696;10.808;2023-12-20T04:18:22;99014.13;;;3.33;100.00
64080;BME280;51042;49.696;10.808;2023-12-20T04:20:47;99016.88;;;3.40;100.00
64080;BME280;51042;49.696;10.808;2023-12-20T04:23:12;99018.81;;;3.40;100.00
64080;BME280;51042;49.696;10.808;2023-12-20T04:25:38;99021.91;;;3.38;100.00
64080;BME280;51042;49.696;10.808;2023-12-20T04:28:03;99020.75;;;3.39;100.00
64080;BME280;51042;49.696;10.808;2023-12-20T04:30:28;99023.84;;;3.38;100.00
64080;BME280;51042;49.696;10.808;2023-12-20T04:32:53;99024.56;;;3.35;100.00
64080;BME280;51042;49.696;10.808;2023-12-20T04:35:18;99023.03;;;3.34;100.00
64080;BME280;51042;49.696;10.808;2023-12-20T04:37:43;99037.34;;;3.34;100.00
64080;BME280;51042;49.696;10.808;2023-12-20T04:40:09;99036.97;;;3.36;100.00
64080;BME280;51042;49.696;10.808;2023-12-20T04:42:34;99037.41;;;3.38;100.00
64080;BME280;51042;49.696;10.808;2023-12-20T04:44:59;99031.56;;;3.36;100.00
64080;BME280;51042;49.696;10.808;2023-12-20T04:47:24;99033.13;;;3.37;100.00
64080;BME280;51042;49.696;10.808;2023-12-20T04:49:49;99038.97;;;3.39;100.00
64080;BME280;51042;49.696;10.808;2023-12-20T04:52:14;99036.97;;;3.36;100.00
64080;BME280;51042;49.696;10.808;2023-12-20T04:54:40;99038.53;;;3.33;100.00
64080;BME280;51042;49.696;10.808;2023-12-20T04:57:05;99047.81;;;3.32;100.00
64080;BME280;51042;49.696;10.808;2023-12-20T04:59:30;99036.53;;;3.30;100.00
64080;BME280;51042;49.696;10.808;2023-12-20T05:01:55;99031.47;;;3.28;100.00
64080;BME280;51042;49.696;10.808;2023-12-20T05:04:20;99043.91;;;3.29;100.00
64080;BME280;51042;49.696;10.808;2023-12-20T05:06:45;99049.31;;;3.29;100.00
64080;BME280;51042;49.696;10.808;2023-12-20T05:09:11;99049.31;;;3.29;100.00
64080;BME280;51042;49.696;10.808;2023-12-20T05:11:36;99040.03;;;3.31;100.00
64080;BME280;51042;49.696;10.808;2023-12-20T05:14:01;99041.19;;;3.29;100.00
64080;BME280;51042;49.696;10.808;2023-12-20T05:16:26;99049.31;;;3.29;100.00
64080;BME280;51042;49.696;10.808;2023-12-20T05:18:51;99051.31;;;3.33;100.00
64080;BME280;51042;49.696;10.808;2023-12-20T05:21:17;99040.44;;;3.33;100.00
64080;BME280;51042;49.696;10.808;2023-12-20T05:23:43;99047.44;;;3.34;100.00
64080;BME280;51042;49.696;10.808;2023-12-20T05:26:08;99050.91;;;3.34;100.00
64080;BME280;51042;49.696;10.808;2023-12-20T05:28:33;99048.97;;;3.35;100.00
64080;BME280;51042;49.696;10.808;2023-12-20T05:30:58;99059.81;;;3.35;100.00
64080;BME280;51042;49.696;10.808;2023-12-20T05:33:23;99066.81;;;3.36;100.00
64080;BME280;51042;49.696;10.808;2023-12-20T05:35:49;99073.81;;;3.37;100.00
64080;BME280;51042;49.696;10.808;2023-12-20T05:38:14;99065.69;;;3.37;100.00
64080;BME280;51042;49.696;10.808;2023-12-20T05:40:40;99058.31;;;3.37;100.00
64080;BME280;51042;49.696;10.808;2023-12-20T05:43:05;99069.97;;;3.38;100.00
64080;BME280;51042;49.696;10.808;2023-12-20T05:45:30;99087.00;;;3.38;100.00
64080;BME280;51042;49.696;10.808;2023-12-20T05:47:55;99088.94;;;3.38;100.00
64080;BME280;51042;49.696;10.808;2023-12-20T05:50:20;99097.88;;;3.38;100.00
64080;BME280;51042;49.696;10.808;2023-12-20T05:52:46;99102.91;;;3.40;100.00
64080;BME280;51042;49.696;10.808;2023-12-20T05:55:11;99107.19;;;3.41;100.00
64080;BME280;51042;49.696;10.808;2023-12-20T05:57:36;99110.69;;;3.41;100.00
64080;BME280;51042;49.696;10.808;2023-12-20T06:00:02;99116.09;;;3.41;100.00
64080;BME280;51042;49.696;10.808;2023-12-20T06:02:28;99121.16;;;3.43;100.00
64080;BME280;51042;49.696;10.808;2023-12-20T06:04:53;99121.94;;;3.43;100.00
64080;BME280;51042;49.696;10.808;2023-12-20T06:07:18;99129.31;;;3.43;100.00
64080;BME280;51042;49.696;10.808;2023-12-20T06:09:44;99132.44;;;3.45;100.00
64080;BME280;51042;49.696;10.808;2023-12-20T06:12:09;99135.16;;;3.45;100.00
64080;BME280;51042;49.696;10.808;2023-12-20T06:14:35;99143.69;;;3.47;100.00
64080;BME280;51042;49.696;10.808;2023-12-20T06:17:00;99146.81;;;3.49;100.00
64080;BME280;51042;49.696;10.808;2023-12-20T06:19:26;99149.88;;;3.47;100.00
64080;BME280;51042;49.696;10.808;2023-12-20T06:21:51;99153.03;;;3.49;100.00
64080;BME280;51042;49.696;10.808;2023-12-20T06:24:16;99154.59;;;3.50;100.00
64080;BME280;51042;49.696;10.808;2023-12-20T06:26:41;99156.91;;;3.52;100.00
64080;BME280;51042;49.696;10.808;2023-12-20T06:29:06;99162.50;;;3.62;100.00
64080;BME280;51042;49.696;10.808;2023-12-20T06:31:31;99160.97;;;3.65;100.00
64080;BME280;51042;49.696;10.808;2023-12-20T06:33:58;99163.78;;;3.76;100.00
64080;BME280;51042;49.696;10.808;2023-12-20T06:36:24;99164.22;;;3.78;100.00
64080;BME280;51042;49.696;10.808;2023-12-20T06:38:50;99178.22;;;3.83;100.00
64080;BME280;51042;49.696;10.808;2023-12-20T06:41:15;99175.19;;;3.88;100.00
64080;BME280;51042;49.696;10.808;2023-12-20T06:43:41;99167.47;;;3.90;100.00
64080;BME280;51042;49.696;10.808;2023-12-20T06:46:06;99172.88;;;3.90;100.00
64080;BME280;51042;49.696;10.808;2023-12-20T06:48:32;99183.38;;;3.92;100.00
64080;BME280;51042;49.696;10.808;2023-12-20T06:50:57;99176.03;;;3.92;100.00
64080;BME280;51042;49.696;10.808;2023-12-20T06:53:23;99176.41;;;3.94;100.00
64080;BME280;51042;49.696;10.808;2023-12-20T06:55:48;99177.16;;;3.91;100.00
64080;BME280;51042;49.696;10.808;2023-12-20T06:58:13;99180.22;;;3.86;100.00
64080;BME280;51042;49.696;10.808;2023-12-20T07:00:38;99188.69;;;3.81;100.00
64080;BME280;51042;49.696;10.808;2023-12-20T07:03:03;99188.28;;;3.79;100.00
64080;BME280;51042;49.696;10.808;2023-12-20T07:05:29;99197.56;;;3.78;100.00
64080;BME280;51042;49.696;10.808;2023-12-20T07:07:54;99187.47;;;3.75;100.00
64080;BME280;51042;49.696;10.808;2023-12-20T07:10:19;99200.56;;;3.69;100.00
64080;BME280;51042;49.696;10.808;2023-12-20T07:12:44;99211.81;;;3.68;100.00
64080;BME280;51042;49.696;10.808;2023-12-20T07:15:09;99207.16;;;3.68;100.00
64080;BME280;51042;49.696;10.808;2023-12-20T07:17:35;99212.66;;;3.76;100.00
64080;BME280;51042;49.696;10.808;2023-12-20T07:20:00;99209.94;;;3.76;100.00
64080;BME280;51042;49.696;10.808;2023-12-20T07:22:29;99211.50;;;3.77;100.00
64080;BME280;51042;49.696;10.808;2023-12-20T07:24:54;99217.78;;;3.81;100.00
64080;BME280;51042;49.696;10.808;2023-12-20T07:27:19;99213.13;;;3.81;100.00
64080;BME280;51042;49.696;10.808;2023-12-20T07:29:45;99214.63;;;3.79;100.00
64080;BME280;51042;49.696;10.808;2023-12-20T07:32:10;99217.00;;;3.80;100.00
64080;BME280;51042;49.696;10.808;2023-12-20T07:34:35;99221.22;;;3.78;100.00
64080;BME280;51042;49.696;10.808;2023-12-20T07:37:00;99221.22;;;3.78;100.00
64080;BME280;51042;49.696;10.808;2023-12-20T07:39:25;99221.28;;;3.81;100.00
64080;BME280;51042;49.696;10.808;2023-12-20T07:41:50;99225.53;;;3.82;100.00
64080;BME280;51042;49.696;10.808;2023-12-20T07:44:16;99229.09;;;3.86;100.00
64080;BME280;51042;49.696;10.808;2023-12-20T07:46:41;99226.41;;;3.90;100.00
64080;BME280;51042;49.696;10.808;2023-12-20T07:49:06;99226.81;;;3.92;100.00
64080;BME280;51042;49.696;10.808;2023-12-20T07:51:31;99240.75;;;3.90;100.00
64080;BME280;51042;49.696;10.808;2023-12-20T07:53:56;99241.22;;;3.96;100.00
64080;BME280;51042;49.696;10.808;2023-12-20T07:56:22;99240.50;;;3.99;100.00
64080;BME280;51042;49.696;10.808;2023-12-20T07:58:47;99238.53;;;3.99;100.00
64080;BME280;51042;49.696;10.808;2023-12-20T08:01:13;99235.78;;;3.96;100.00
64080;BME280;51042;49.696;10.808;2023-12-20T08:03:38;99238.88;;;3.94;100.00
64080;BME280;51042;49.696;10.808;2023-12-20T08:06:04;99239.28;;;3.96;100.00
64080;BME280;51042;49.696;10.808;2023-12-20T08:08:29;99241.63;;;3.98;100.00
64080;BME280;51042;49.696;10.808;2023-12-20T08:10:54;99237.03;;;4.02;100.00
64080;BME280;51042;49.696;10.808;2023-12-20T08:13:19;99234.72;;;4.04;100.00
64080;BME280;51042;49.696;10.808;2023-12-20T08:15:44;99240.59;;;4.09;100.00
64080;BME280;51042;49.696;10.808;2023-12-20T08:18:09;99242.63;;;4.16;100.00
64080;BME280;51042;49.696;10.808;2023-12-20T08:20:35;99249.56;;;4.14;100.00
64080;BME280;51042;49.696;10.808;2023-12-20T08:23:00;99249.94;;;4.12;100.00
64080;BME280;51042;49.696;10.808;2023-12-20T08:25:25;99249.22;;;4.19;100.00
64080;BME280;51042;49.696;10.808;2023-12-20T08:27:50;99235.66;;;4.19;100.00
64080;BME280;51042;49.696;10.808;2023-12-20T08:30:16;99248.06;;;4.16;100.00
64080;BME280;51042;49.696;10.808;2023-12-20T08:32:45;99235.19;;;4.13;100.00
64080;BME280;51042;49.696;10.808;2023-12-20T08:35:10;99222.63;;;3.98;100.00
64080;BME280;51042;49.696;10.808;2023-12-20T08:37:36;99221.72;;;3.87;100.00
64080;BME280;51042;49.696;10.808;2023-12-20T08:40:01;99226.88;;;4.32;100.00
64080;BME280;51042;49.696;10.808;2023-12-20T08:42:26;99224.25;;;4.43;100.00
64080;BME280;51042;49.696;10.808;2023-12-20T08:44:56;99204.25;;;4.62;100.00
64080;BME280;51042;49.696;10.808;2023-12-20T08:47:21;99203.19;;;4.73;100.00
64080;BME280;51042;49.696;10.808;2023-12-20T08:49:46;99197.38;;;4.78;100.00
64080;BME280;51042;49.696;10.808;2023-12-20T08:52:11;99188.44;;;4.74;100.00
64080;BME280;51042;49.696;10.808;2023-12-20T08:54:36;99192.78;;;4.82;100.00
64080;BME280;51042;49.696;10.808;2023-12-20T08:57:01;99178.06;;;4.90;100.00
64080;BME280;51042;49.696;10.808;2023-12-20T08:59:27;99168.75;;;4.95;100.00
64080;BME280;51042;49.696;10.808;2023-12-20T09:01:52;99166.88;;;5.03;100.00
64080;BME280;51042;49.696;10.808;2023-12-20T09:04:19;99159.09;;;5.01;100.00
64080;BME280;51042;49.696;10.808;2023-12-20T09:06:45;99157.19;;;5.05;100.00
64080;BME280;51042;49.696;10.808;2023-12-20T09:09:10;99147.91;;;5.13;100.00
64080;BME280;51042;49.696;10.808;2023-12-20T09:11:38;99120.69;;;5.13;100.00
64080;BME280;51042;49.696;10.808;2023-12-20T09:14:03;99108.63;;;5.07;100.00
64080;BME280;51042;49.696;10.808;2023-12-20T09:16:28;99105.53;;;5.09;100.00
64080;BME280;51042;49.696;10.808;2023-12-20T09:18:54;99097.41;;;5.19;100.00
64080;BME280;51042;49.696;10.808;2023-12-20T09:21:19;99095.47;;;5.20;100.00
64080;BME280;51042;49.696;10.808;2023-12-20T09:23:46;99092.06;;;5.41;100.00
64080;BME280;51042;49.696;10.808;2023-12-20T09:26:11;99086.28;;;5.53;100.00
64080;BME280;51042;49.696;10.808;2023-12-20T09:28:37;99054.00;;;5.58;100.00
64080;BME280;51042;49.696;10.808;2023-12-20T09:31:03;99049.72;;;5.47;100.00
64080;BME280;51042;49.696;10.808;2023-12-20T09:33:28;99050.53;;;5.65;100.00
64080;BME280;51042;49.696;10.808;2023-12-20T09:35:53;99038.06;;;5.60;100.00
64080;BME280;51042;49.696;10.808;2023-12-20T09:38:18;99038.88;;;5.82;100.00
64080;BME280;51042;49.696;10.808;2023-12-20T09:40:43;99019.88;;;5.89;100.00
64080;BME280;51042;49.696;10.808;2023-12-20T09:43:10;99001.16;;;6.16;100.00
64080;BME280;51042;49.696;10.808;2023-12-20T09:45:35;98985.94;;;6.40;100.00
64080;BME280;51042;49.696;10.808;2023-12-20T09:48:01;98975.84;;;6.26;100.00
64080;BME280;51042;49.696;10.808;2023-12-20T09:50:27;98958.72;;;6.22;100.00
64080;BME280;51042;49.696;10.808;2023-12-20T09:52:53;98947.47;;;6.02;100.00
64080;BME280;51042;49.696;10.808;2023-12-20T09:55:18;98936.56;;;5.67;100.00
64080;BME280;51042;49.696;10.808;2023-12-20T09:57:44;98924.50;;;5.47;100.00
64080;BME280;51042;49.696;10.808;2023-12-20T10:00:10;98929.16;;;5.43;100.00
64080;BME280;51042;49.696;10.808;2023-12-20T10:02:35;98923.34;;;5.48;100.00
64080;BME280;51042;49.696;10.808;2023-12-20T10:05:02;98917.88;;;5.55;100.00
64080;BME280;51042;49.696;10.808;2023-12-20T10:07:29;98914.78;;;5.60;100.00
64080;BME280;51042;49.696;10.808;2023-12-20T10:09:54;98897.28;;;5.50;100.00
64080;BME280;51042;49.696;10.808;2023-12-20T10:12:21;98857.22;;;5.26;100.00
64080;BME280;51042;49.696;10.808;2023-12-20T10:14:46;98861.13;;;5.18;100.00
64080;BME280;51042;49.696;10.808;2023-12-20T10:17:11;98865.00;;;5.10;100.00
64080;BME280;51042;49.696;10.808;2023-12-20T10:19:36;98869.63;;;4.99;100.00
64080;BME280;51042;49.696;10.808;2023-12-20T10:22:04;98860.69;;;4.98;100.00
64080;BME280;51042;49.696;10.808;2023-12-20T10:24:29;98872.34;;;4.99;100.00
64080;BME280;51042;49.696;10.808;2023-12-20T10:27:01;98861.47;;;4.99;100.00
64080;BME280;51042;49.696;10.808;2023-12-20T10:29:30;98844.00;;;5.03;100.00
64080;BME280;51042;49.696;10.808;2023-12-20T10:31:56;98852.16;;;5.56;100.00
64080;BME280;51042;49.696;10.808;2023-12-20T10:34:22;98842.78;;;6.00;100.00
64080;BME280;51042;49.696;10.808;2023-12-20T10:36:47;98826.81;;;6.02;100.00
64080;BME280;51042;49.696;10.808;2023-12-20T10:39:12;98808.50;;;6.17;100.00
64080;BME280;51042;49.696;10.808;2023-12-20T10:41:39;98805.44;;;6.07;100.00
64080;BME280;51042;49.696;10.808;2023-12-20T10:44:06;98782.47;;;6.05;100.00
64080;BME280;51042;49.696;10.808;2023-12-20T10:46:31;98777.00;;;6.05;100.00
64080;BME280;51042;49.696;10.808;2023-12-20T10:49:02;98778.19;;;6.07;100.00
64080;BME280;51042;49.696;10.808;2023-12-20T10:51:29;98750.22;;;5.82;100.00
64080;BME280;51042;49.696;10.808;2023-12-20T10:53:56;98758.41;;;5.75;100.00
64080;BME280;51042;49.696;10.808;2023-12-20T10:56:21;98762.69;;;5.69;100.00
64080;BME280;51042;49.696;10.808;2023-12-20T10:58:48;98746.38;;;5.69;100.00
64080;BME280;51042;49.696;10.808;2023-12-20T11:01:14;98742.47;;;5.70;100.00
64080;BME280;51042;49.696;10.808;2023-12-20T11:03:43;98736.19;;;5.94;100.00
64080;BME280;51042;49.696;10.808;2023-12-20T11:06:56;98729.56;;;5.99;100.00
64080;BME280;51042;49.696;10.808;2023-12-20T11:11:37;98728.88;;;5.70;100.00
64080;BME280;51042;49.696;10.808;2023-12-20T11:14:08;98719.13;;;5.72;100.00
64080;BME280;51042;49.696;10.808;2023-12-20T11:16:39;98714.91;;;5.57;100.00
64080;BME280;51042;49.696;10.808;2023-12-20T11:19:05;98721.91;;;5.51;100.00
64080;BME280;51042;49.696;10.808;2023-12-20T11:21:31;98725.41;;;5.52;100.00
64080;BME280;51042;49.696;10.808;2023-12-20T11:23:56;98716.84;;;5.57;100.00
64080;BME280;51042;49.696;10.808;2023-12-20T11:26:28;98710.63;;;5.56;100.00
64080;BME280;51042;49.696;10.808;2023-12-20T11:31:40;98702.06;;;5.58;100.00
64080;BME280;51042;49.696;10.808;2023-12-20T11:34:14;98707.13;;;5.49;100.00
64080;BME280;51042;49.696;10.808;2023-12-20T11:36:39;98703.69;;;5.34;100.00
64080;BME280;51042;49.696;10.808;2023-12-20T11:39:05;98711.47;;;5.32;100.00
64080;BME280;51042;49.696;10.808;2023-12-20T11:41:33;98715.34;;;5.38;100.00
64080;BME280;51042;49.696;10.808;2023-12-20T11:43:58;98718.78;;;5.56;100.00
64080;BME280;51042;49.696;10.808;2023-12-20T11:46:25;98707.50;;;5.65;100.00
64080;BME280;51042;49.696;10.808;2023-12-20T11:48:51;98696.97;;;5.67;100.00
64080;BME280;51042;49.696;10.808;2023-12-20T11:51:16;98700.91;;;5.59;100.00
64080;BME280;51042;49.696;10.808;2023-12-20T11:53:41;98696.25;;;5.52;100.00
64080;BME280;51042;49.696;10.808;2023-12-20T11:56:09;98697.03;;;5.60;100.00
64080;BME280;51042;49.696;10.808;2023-12-20T11:58:35;98697.78;;;5.64;100.00
64080;BME280;51042;49.696;10.808;2023-12-20T12:01:04;98695.81;;;5.71;100.00
64080;BME280;51042;49.696;10.808;2023-12-20T12:03:32;98690.00;;;5.66;100.00
64080;BME280;51042;49.696;10.808;2023-12-20T12:06:00;98684.88;;;5.75;100.00
64080;BME280;51042;49.696;10.808;2023-12-20T12:08:26;98682.97;;;5.68;100.00
64080;BME280;51042;49.696;10.808;2023-12-20T12:10:51;98674.09;;;5.54;100.00
64080;BME280;51042;49.696;10.808;2023-12-20T12:13:17;98682.66;;;5.52;100.00
64080;BME280;51042;49.696;10.808;2023-12-20T12:15:42;98680.69;;;5.53;100.00
64080;BME280;51042;49.696;10.808;2023-12-20T12:18:08;98686.56;;;5.44;100.00
64080;BME280;51042;49.696;10.808;2023-12-20T12:20:35;98705.22;;;5.39;100.00
64080;BME280;51042;49.696;10.808;2023-12-20T12:23:01;98705.25;;;5.31;100.00
64080;BME280;51042;49.696;10.808;2023-12-20T12:25:28;98709.53;;;5.29;100.00
64080;BME280;51042;49.696;10.808;2023-12-20T12:27:59;98706.81;;;5.29;100.00
64080;BME280;51042;49.696;10.808;2023-12-20T12:30:25;98704.47;;;5.27;100.00
64080;BME280;51042;49.696;10.808;2023-12-20T12:32:51;98705.25;;;5.31;100.00
64080;BME280;51042;49.696;10.808;2023-12-20T12:35:17;98709.13;;;5.34;100.00
64080;BME280;51042;49.696;10.808;2023-12-20T12:37:42;98711.84;;;5.41;100.00
64080;BME280;51042;49.696;10.808;2023-12-20T12:40:14;98701.31;;;5.43;100.00
64080;BME280;51042;49.696;10.808;2023-12-20T12:42:49;98713.41;;;5.42;100.00
64080;BME280;51042;49.696;10.808;2023-12-20T12:45:14;98702.88;;;5.44;100.00
64080;BME280;51042;49.696;10.808;2023-12-20T12:47:40;98707.53;;;5.44;100.00